sensor_id;sensor_type;location;lat;lon;timestamp;temperature;humidity
38398;DHT22;24179;52.094;4.408;2023-04-03T00:01:20;4.00;99.90
38398;DHT22;24179;52.094;4.408;2023-04-03T00:04:21;4.00;99.90
38398;DHT22;24179;52.094;4.408;2023-04-03T00:07:21;4.00;99.90
38398;DHT22;24179;52.094;4.408;2023-04-03T00:10:22;4.00;99.90
38398;DHT22;24179;52.094;4.408;2023-04-03T00:13:23;4.00;99.90
38398;DHT22;24179;52.094;4.408;2023-04-03T00:16:24;3.90;99.90
38398;DHT22;24179;52.094;4.408;2023-04-03T00:19:24;3.90;99.90
38398;DHT22;24179;52.094;4.408;2023-04-03T00:22:24;3.90;99.90
38398;DHT22;24179;52.094;4.408;2023-04-03T00:25:26;3.80;99.90
38398;DHT22;24179;52.094;4.408;2023-04-03T00:28:27;3.80;99.90
38398;DHT22;24179;52.094;4.408;2023-04-03T00:31:28;3.80;99.90
38398;DHT22;24179;52.094;4.408;2023-04-03T00:34:28;3.70;99.90
38398;DHT22;24179;52.094;4.408;2023-04-03T00:37:29;3.70;99.90
38398;DHT22;24179;52.094;4.408;2023-04-03T00:40:33;3.60;99.90
38398;DHT22;24179;52.094;4.408;2023-04-03T00:43:33;3.60;99.90
38398;DHT22;24179;52.094;4.408;2023-04-03T00:46:34;3.60;99.90
38398;DHT22;24179;52.094;4.408;2023-04-03T00:49:35;3.60;99.90
38398;DHT22;24179;52.094;4.408;2023-04-03T00:52:36;3.60;99.90
38398;DHT22;24179;52.094;4.408;2023-04-03T00:55:37;3.60;99.90
38398;DHT22;24179;52.094;4.408;2023-04-03T00:58:46;3.60;99.90
38398;DHT22;24179;52.094;4.408;2023-04-03T01:01:48;3.70;99.90
38398;DHT22;24179;52.094;4.408;2023-04-03T01:04:49;3.60;99.90
38398;DHT22;24179;52.094;4.408;2023-04-03T01:07:50;3.60;99.90
38398;DHT22;24179;52.094;4.408;2023-04-03T01:10:51;3.60;99.90
38398;DHT22;24179;52.094;4.408;2023-04-03T01:13:52;3.60;99.90
38398;DHT22;24179;52.094;4.408;2023-04-03T01:16:53;3.50;99.90
38398;DHT22;24179;52.094;4.408;2023-04-03T01:23:22;3.50;99.90
38398;DHT22;24179;52.094;4.408;2023-04-03T01:26:25;3.60;99.90
38398;DHT22;24179;52.094;4.408;2023-04-03T01:29:26;3.60;99.90
38398;DHT22;24179;52.094;4.408;2023-04-03T01:32:27;3.50;99.90
38398;DHT22;24179;52.094;4.408;2023-04-03T01:35:27;3.50;99.90
38398;DHT22;24179;52.094;4.408;2023-04-03T01:38:28;3.40;99.90
38398;DHT22;24179;52.094;4.408;2023-04-03T01:41:28;3.40;99.90
38398;DHT22;24179;52.094;4.408;2023-04-03T01:44:31;3.50;99.90
38398;DHT22;24179;52.094;4.408;2023-04-03T01:47:32;3.40;99.90
38398;DHT22;24179;52.094;4.408;2023-04-03T01:50:32;3.40;99.90
38398;DHT22;24179;52.094;4.408;2023-04-03T01:53:34;3.40;99.90
38398;DHT22;24179;52.094;4.408;2023-04-03T01:56:34;3.40;99.90
38398;DHT22;24179;52.094;4.408;2023-04-03T01:59:35;3.30;99.90
38398;DHT22;24179;52.094;4.408;2023-04-03T02:02:36;3.30;99.90
38398;DHT22;24179;52.094;4.408;2023-04-03T02:05:36;3.20;99.90
38398;DHT22;24179;52.094;4.408;2023-04-03T02:08:37;3.20;99.90
38398;DHT22;24179;52.094;4.408;2023-04-03T02:11:38;3.20;99.90
38398;DHT22;24179;52.094;4.408;2023-04-03T02:14:38;3.10;99.90
38398;DHT22;24179;52.094;4.408;2023-04-03T02:17:39;3.00;99.90
38398;DHT22;24179;52.094;4.408;2023-04-03T02:20:39;3.00;99.90
38398;DHT22;24179;52.094;4.408;2023-04-03T02:23:40;3.00;99.90
38398;DHT22;24179;52.094;4.408;2023-04-03T02:26:40;3.00;99.90
38398;DHT22;24179;52.094;4.408;2023-04-03T02:29:41;2.90;99.90
38398;DHT22;24179;52.094;4.408;2023-04-03T02:32:41;2.90;99.90
38398;DHT22;24179;52.094;4.408;2023-04-03T02:35:42;2.80;99.90
38398;DHT22;24179;52.094;4.408;2023-04-03T02:38:42;2.70;99.90
38398;DHT22;24179;52.094;4.408;2023-04-03T02:41:43;2.70;99.90
38398;DHT22;24179;52.094;4.408;2023-04-03T02:44:43;2.70;99.90
38398;DHT22;24179;52.094;4.408;2023-04-03T02:47:44;2.60;99.90
38398;DHT22;24179;52.094;4.408;2023-04-03T02:50:45;2.50;99.90
38398;DHT22;24179;52.094;4.408;2023-04-03T02:53:45;2.50;99.90
38398;DHT22;24179;52.094;4.408;2023-04-03T02:56:46;2.40;99.90
38398;DHT22;24179;52.094;4.408;2023-04-03T02:59:46;2.40;99.90
38398;DHT22;24179;52.094;4.408;2023-04-03T03:02:48;2.30;99.90
38398;DHT22;24179;52.094;4.408;2023-04-03T03:05:48;2.30;99.90
38398;DHT22;24179;52.094;4.408;2023-04-03T03:08:49;2.40;99.90
38398;DHT22;24179;52.094;4.408;2023-04-03T03:11:49;2.30;99.90
38398;DHT22;24179;52.094;4.408;2023-04-03T03:14:50;2.30;99.90
38398;DHT22;24179;52.094;4.408;2023-04-03T03:17:50;2.30;99.90
38398;DHT22;24179;52.094;4.408;2023-04-03T03:20:51;2.30;99.90
38398;DHT22;24179;52.094;4.408;2023-04-03T03:23:52;2.20;99.90
38398;DHT22;24179;52.094;4.408;2023-04-03T03:26:53;2.20;99.90
38398;DHT22;24179;52.094;4.408;2023-04-03T03:29:53;2.10;99.90
38398;DHT22;24179;52.094;4.408;2023-04-03T03:32:54;2.10;99.90
38398;DHT22;24179;52.094;4.408;2023-04-03T03:35:54;2.10;99.90
38398;DHT22;24179;52.094;4.408;2023-04-03T03:38:55;2.10;99.90
38398;DHT22;24179;52.094;4.408;2023-04-03T03:41:55;2.10;99.90
38398;DHT22;24179;52.094;4.408;2023-04-03T03:44:55;2.00;99.90
38398;DHT22;24179;52.094;4.408;2023-04-03T03:47:56;2.10;99.90
38398;DHT22;24179;52.094;4.408;2023-04-03T03:50:56;2.00;99.90
38398;DHT22;24179;52.094;4.408;2023-04-03T03:54:00;2.00;99.90
38398;DHT22;24179;52.094;4.408;2023-04-03T03:57:00;2.00;99.90
38398;DHT22;24179;52.094;4.408;2023-04-03T04:00:01;2.10;99.90
38398;DHT22;24179;52.094;4.408;2023-04-03T04:03:02;2.10;99.90
38398;DHT22;24179;52.094;4.408;2023-04-03T04:06:03;2.10;99.90
38398;DHT22;24179;52.094;4.408;2023-04-03T04:09:03;2.10;99.90
38398;DHT22;24179;52.094;4.408;2023-04-03T04:12:04;2.10;99.90
38398;DHT22;24179;52.094;4.408;2023-04-03T04:15:04;2.20;99.90
38398;DHT22;24179;52.094;4.408;2023-04-03T04:18:06;2.10;99.90
38398;DHT22;24179;52.094;4.408;2023-04-03T04:21:06;2.10;99.90
38398;DHT22;24179;52.094;4.408;2023-04-03T04:24:07;2.10;99.90
38398;DHT22;24179;52.094;4.408;2023-04-03T04:27:07;2.10;99.90
38398;DHT22;24179;52.094;4.408;2023-04-03T04:30:08;2.20;99.90
38398;DHT22;24179;52.094;4.408;2023-04-03T04:33:12;2.10;99.90
38398;DHT22;24179;52.094;4.408;2023-04-03T04:36:14;2.10;99.90
38398;DHT22;24179;52.094;4.408;2023-04-03T04:39:14;2.10;99.90
38398;DHT22;24179;52.094;4.408;2023-04-03T04:42:15;2.10;99.90
38398;DHT22;24179;52.094;4.408;2023-04-03T04:45:15;2.00;99.90
38398;DHT22;24179;52.094;4.408;2023-04-03T04:48:16;2.00;99.90
38398;DHT22;24179;52.094;4.408;2023-04-03T04:51:16;2.10;99.90
38398;DHT22;24179;52.094;4.408;2023-04-03T04:54:17;2.00;99.90
38398;DHT22;24179;52.094;4.408;2023-04-03T04:57:18;2.00;99.90
38398;DHT22;24179;52.094;4.408;2023-04-03T05:00:18;2.10;99.90
38398;DHT22;24179;52.094;4.408;2023-04-03T05:03:19;2.10;99.90
38398;DHT22;24179;52.094;4.408;2023-04-03T05:06:20;2.10;99.90
38398;DHT22;24179;52.094;4.408;2023-04-03T05:09:20;2.10;99.90
38398;DHT22;24179;52.094;4.408;2023-04-03T05:12:21;2.10;99.90
38398;DHT22;24179;52.094;4.408;2023-04-03T05:15:21;2.10;99.90
38398;DHT22;24179;52.094;4.408;2023-04-03T05:18:21;2.10;99.90
38398;DHT22;24179;52.094;4.408;2023-04-03T05:21:22;2.10;99.90
38398;DHT22;24179;52.094;4.408;2023-04-03T05:24:25;2.10;99.90
38398;DHT22;24179;52.094;4.408;2023-04-03T05:27:26;2.10;99.90
38398;DHT22;24179;52.094;4.408;2023-04-03T05:30:28;2.10;99.90
38398;DHT22;24179;52.094;4.408;2023-04-03T05:33:28;2.10;99.90
38398;DHT22;24179;52.094;4.408;2023-04-03T05:36:29;2.10;99.90
38398;DHT22;24179;52.094;4.408;2023-04-03T05:39:30;2.20;99.90
38398;DHT22;24179;52.094;4.408;2023-04-03T05:42:31;2.20;99.90
38398;DHT22;24179;52.094;4.408;2023-04-03T05:45:32;2.20;99.90
38398;DHT22;24179;52.094;4.408;2023-04-03T05:48:32;2.30;99.90
38398;DHT22;24179;52.094;4.408;2023-04-03T05:51:34;2.30;99.90
38398;DHT22;24179;52.094;4.408;2023-04-03T05:54:35;2.30;99.90
38398;DHT22;24179;52.094;4.408;2023-04-03T05:57:35;2.30;99.90
38398;DHT22;24179;52.094;4.408;2023-04-03T06:00:35;2.30;99.90
38398;DHT22;24179;52.094;4.408;2023-04-03T06:03:36;2.40;99.90
38398;DHT22;24179;52.094;4.408;2023-04-03T06:06:53;2.30;99.90
38398;DHT22;24179;52.094;4.408;2023-04-03T06:09:54;2.40;99.90
38398;DHT22;24179;52.094;4.408;2023-04-03T06:12:55;2.40;99.90
38398;DHT22;24179;52.094;4.408;2023-04-03T06:15:56;2.50;99.90
38398;DHT22;24179;52.094;4.408;2023-04-03T06:18:57;2.50;99.90
38398;DHT22;24179;52.094;4.408;2023-04-03T06:21:57;2.50;99.90
38398;DHT22;24179;52.094;4.408;2023-04-03T06:24:58;2.60;99.90
38398;DHT22;24179;52.094;4.408;2023-04-03T06:28:01;2.60;99.90
38398;DHT22;24179;52.094;4.408;2023-04-03T06:31:08;2.60;99.90
38398;DHT22;24179;52.094;4.408;2023-04-03T06:34:09;2.60;99.90
38398;DHT22;24179;52.094;4.408;2023-04-03T06:37:19;2.70;99.90
38398;DHT22;24179;52.094;4.408;2023-04-03T06:40:21;2.70;99.90
38398;DHT22;24179;52.094;4.408;2023-04-03T06:43:22;2.80;99.90
38398;DHT22;24179;52.094;4.408;2023-04-03T06:46:23;2.80;99.90
38398;DHT22;24179;52.094;4.408;2023-04-03T06:49:24;3.00;99.90
38398;DHT22;24179;52.094;4.408;2023-04-03T06:52:25;3.00;99.90
38398;DHT22;24179;52.094;4.408;2023-04-03T06:55:27;3.10;99.90
38398;DHT22;24179;52.094;4.408;2023-04-03T06:58:28;3.10;99.90
38398;DHT22;24179;52.094;4.408;2023-04-03T07:01:28;3.30;99.90
38398;DHT22;24179;52.094;4.408;2023-04-03T07:04:30;3.30;99.90
38398;DHT22;24179;52.094;4.408;2023-04-03T07:07:30;3.60;99.90
38398;DHT22;24179;52.094;4.408;2023-04-03T07:10:31;4.00;99.90
38398;DHT22;24179;52.094;4.408;2023-04-03T07:13:32;4.50;99.90
38398;DHT22;24179;52.094;4.408;2023-04-03T07:16:33;4.50;99.90
38398;DHT22;24179;52.094;4.408;2023-04-03T07:19:34;5.00;99.90
38398;DHT22;24179;52.094;4.408;2023-04-03T07:22:34;5.20;99.90
38398;DHT22;24179;52.094;4.408;2023-04-03T07:25:35;5.50;99.90
38398;DHT22;24179;52.094;4.408;2023-04-03T07:28:35;6.20;99.90
38398;DHT22;24179;52.094;4.408;2023-04-03T07:31:39;7.10;99.90
38398;DHT22;24179;52.094;4.408;2023-04-03T07:34:39;8.00;99.90
38398;DHT22;24179;52.094;4.408;2023-04-03T07:37:40;8.40;99.90
38398;DHT22;24179;52.094;4.408;2023-04-03T07:40:46;8.70;99.90
38398;DHT22;24179;52.094;4.408;2023-04-03T07:43:47;9.10;99.90
38398;DHT22;24179;52.094;4.408;2023-04-03T07:46:49;9.40;99.90
38398;DHT22;24179;52.094;4.408;2023-04-03T07:49:50;9.70;99.90
38398;DHT22;24179;52.094;4.408;2023-04-03T07:52:51;10.10;99.90
38398;DHT22;24179;52.094;4.408;2023-04-03T07:55:55;10.30;99.90
38398;DHT22;24179;52.094;4.408;2023-04-03T07:58:57;10.10;99.90
38398;DHT22;24179;52.094;4.408;2023-04-03T08:01:57;10.80;99.90
38398;DHT22;24179;52.094;4.408;2023-04-03T08:04:58;11.00;99.90
38398;DHT22;24179;52.094;4.408;2023-04-03T08:07:58;11.60;99.90
38398;DHT22;24179;52.094;4.408;2023-04-03T08:10:59;11.70;99.90
38398;DHT22;24179;52.094;4.408;2023-04-03T08:14:00;11.70;99.90
38398;DHT22;24179;52.094;4.408;2023-04-03T08:17:02;12.00;99.90
38398;DHT22;24179;52.094;4.408;2023-04-03T08:20:05;12.10;99.90
38398;DHT22;24179;52.094;4.408;2023-04-03T08:23:07;11.90;99.90
38398;DHT22;24179;52.094;4.408;2023-04-03T08:26:11;12.10;99.90
38398;DHT22;24179;52.094;4.408;2023-04-03T08:29:12;12.40;99.90
38398;DHT22;24179;52.094;4.408;2023-04-03T08:32:13;12.40;99.90
38398;DHT22;24179;52.094;4.408;2023-04-03T08:35:14;12.50;99.90
38398;DHT22;24179;52.094;4.408;2023-04-03T08:38:14;12.60;99.90
38398;DHT22;24179;52.094;4.408;2023-04-03T08:44:40;13.00;99.60
38398;DHT22;24179;52.094;4.408;2023-04-03T08:47:47;13.40;99.40
38398;DHT22;24179;52.094;4.408;2023-04-03T08:50:51;13.60;99.90
38398;DHT22;24179;52.094;4.408;2023-04-03T08:53:56;13.60;98.90
38398;DHT22;24179;52.094;4.408;2023-04-03T08:56:57;13.80;99.30
38398;DHT22;24179;52.094;4.408;2023-04-03T08:59:59;13.70;97.60
38398;DHT22;24179;52.094;4.408;2023-04-03T09:03:00;13.70;98.00
38398;DHT22;24179;52.094;4.408;2023-04-03T09:15:19;14.40;98.30
38398;DHT22;24179;52.094;4.408;2023-04-03T09:18:21;14.60;97.00
38398;DHT22;24179;52.094;4.408;2023-04-03T09:21:44;14.60;97.10
38398;DHT22;24179;52.094;4.408;2023-04-03T09:24:45;14.00;96.10
38398;DHT22;24179;52.094;4.408;2023-04-03T09:27:47;14.40;95.80
38398;DHT22;24179;52.094;4.408;2023-04-03T09:30:48;14.80;95.50
38398;DHT22;24179;52.094;4.408;2023-04-03T09:33:49;15.00;96.30
38398;DHT22;24179;52.094;4.408;2023-04-03T09:36:51;14.60;94.00
38398;DHT22;24179;52.094;4.408;2023-04-03T09:39:52;14.60;93.30
38398;DHT22;24179;52.094;4.408;2023-04-03T09:42:57;14.60;92.60
38398;DHT22;24179;52.094;4.408;2023-04-03T09:46:18;14.50;92.40
38398;DHT22;24179;52.094;4.408;2023-04-03T09:49:19;15.00;92.60
38398;DHT22;24179;52.094;4.408;2023-04-03T09:52:22;14.90;92.30
38398;DHT22;24179;52.094;4.408;2023-04-03T09:55:24;15.30;92.10
38398;DHT22;24179;52.094;4.408;2023-04-03T09:58:37;15.60;90.80
38398;DHT22;24179;52.094;4.408;2023-04-03T10:01:38;16.10;91.30
38398;DHT22;24179;52.094;4.408;2023-04-03T10:04:40;16.20;89.10
38398;DHT22;24179;52.094;4.408;2023-04-03T10:07:40;16.00;87.20
38398;DHT22;24179;52.094;4.408;2023-04-03T10:10:44;16.10;85.90
38398;DHT22;24179;52.094;4.408;2023-04-03T10:13:51;15.70;81.70
38398;DHT22;24179;52.094;4.408;2023-04-03T10:23:21;15.50;81.10
38398;DHT22;24179;52.094;4.408;2023-04-03T10:36:11;15.60;74.90
38398;DHT22;24179;52.094;4.408;2023-04-03T10:43:00;15.30;74.60
38398;DHT22;24179;52.094;4.408;2023-04-03T10:45:51;15.60;71.70
38398;DHT22;24179;52.094;4.408;2023-04-03T10:52:10;15.60;70.90
38398;DHT22;24179;52.094;4.408;2023-04-03T10:58:20;16.10;66.20
38398;DHT22;24179;52.094;4.408;2023-04-03T11:01:22;16.10;70.90
38398;DHT22;24179;52.094;4.408;2023-04-03T11:04:25;15.80;63.70
38398;DHT22;24179;52.094;4.408;2023-04-03T11:07:28;16.20;68.90
38398;DHT22;24179;52.094;4.408;2023-04-03T11:10:47;16.40;69.00
38398;DHT22;24179;52.094;4.408;2023-04-03T11:13:52;16.50;66.90
38398;DHT22;24179;52.094;4.408;2023-04-03T11:17:05;16.40;66.40
38398;DHT22;24179;52.094;4.408;2023-04-03T11:26:18;16.30;62.70
38398;DHT22;24179;52.094;4.408;2023-04-03T11:29:20;16.20;63.30
38398;DHT22;24179;52.094;4.408;2023-04-03T11:35:42;16.00;63.60
38398;DHT22;24179;52.094;4.408;2023-04-03T11:38:43;16.30;63.90
38398;DHT22;24179;52.094;4.408;2023-04-03T11:41:46;15.70;62.80
38398;DHT22;24179;52.094;4.408;2023-04-03T11:44:47;15.30;62.70
38398;DHT22;24179;52.094;4.408;2023-04-03T11:47:48;15.90;64.50
38398;DHT22;24179;52.094;4.408;2023-04-03T11:50:49;16.30;65.40
38398;DHT22;24179;52.094;4.408;2023-04-03T11:53:50;16.50;61.60
38398;DHT22;24179;52.094;4.408;2023-04-03T11:56:51;16.40;66.40
38398;DHT22;24179;52.094;4.408;2023-04-03T11:59:51;16.40;66.20
38398;DHT22;24179;52.094;4.408;2023-04-03T12:02:51;16.30;64.10
38398;DHT22;24179;52.094;4.408;2023-04-03T12:08:54;16.20;63.20
38398;DHT22;24179;52.094;4.408;2023-04-03T12:11:57;16.30;63.30
38398;DHT22;24179;52.094;4.408;2023-04-03T12:24:45;16.90;62.90
38398;DHT22;24179;52.094;4.408;2023-04-03T12:27:48;17.00;61.90
38398;DHT22;24179;52.094;4.408;2023-04-03T12:30:49;16.40;60.50
38398;DHT22;24179;52.094;4.408;2023-04-03T12:37:09;16.70;61.90
38398;DHT22;24179;52.094;4.408;2023-04-03T12:46:47;17.30;59.20
38398;DHT22;24179;52.094;4.408;2023-04-03T12:49:47;17.20;60.50
38398;DHT22;24179;52.094;4.408;2023-04-03T12:59:22;16.50;56.70
38398;DHT22;24179;52.094;4.408;2023-04-03T13:02:24;16.20;58.60
38398;DHT22;24179;52.094;4.408;2023-04-03T13:05:25;15.80;60.00
38398;DHT22;24179;52.094;4.408;2023-04-03T13:08:26;15.80;60.20
38398;DHT22;24179;52.094;4.408;2023-04-03T13:11:30;16.00;58.20
38398;DHT22;24179;52.094;4.408;2023-04-03T13:14:31;16.20;59.70
38398;DHT22;24179;52.094;4.408;2023-04-03T13:17:33;16.40;59.30
38398;DHT22;24179;52.094;4.408;2023-04-03T13:20:38;16.30;59.60
38398;DHT22;24179;52.094;4.408;2023-04-03T13:23:39;15.80;57.40
38398;DHT22;24179;52.094;4.408;2023-04-03T13:26:41;15.50;61.80
38398;DHT22;24179;52.094;4.408;2023-04-03T13:29:42;15.30;59.90
38398;DHT22;24179;52.094;4.408;2023-04-03T13:32:43;14.90;60.10
38398;DHT22;24179;52.094;4.408;2023-04-03T13:35:44;15.00;59.60
38398;DHT22;24179;52.094;4.408;2023-04-03T13:38:44;15.60;62.70
38398;DHT22;24179;52.094;4.408;2023-04-03T13:41:46;16.10;60.70
38398;DHT22;24179;52.094;4.408;2023-04-03T13:44:47;16.20;61.70
38398;DHT22;24179;52.094;4.408;2023-04-03T13:47:48;16.50;61.70
38398;DHT22;24179;52.094;4.408;2023-04-03T13:50:59;16.60;61.90
38398;DHT22;24179;52.094;4.408;2023-04-03T13:54:01;16.70;60.40
38398;DHT22;24179;52.094;4.408;2023-04-03T13:57:02;16.80;61.90
38398;DHT22;24179;52.094;4.408;2023-04-03T14:00:19;17.00;59.40
38398;DHT22;24179;52.094;4.408;2023-04-03T14:06:24;16.50;57.70
38398;DHT22;24179;52.094;4.408;2023-04-03T14:09:26;16.40;60.40
38398;DHT22;24179;52.094;4.408;2023-04-03T14:15:27;16.90;61.40
38398;DHT22;24179;52.094;4.408;2023-04-03T14:18:28;17.10;60.90
38398;DHT22;24179;52.094;4.408;2023-04-03T14:21:29;17.00;59.50
38398;DHT22;24179;52.094;4.408;2023-04-03T14:24:29;17.40;59.90
38398;DHT22;24179;52.094;4.408;2023-04-03T14:27:33;17.50;61.00
38398;DHT22;24179;52.094;4.408;2023-04-03T14:30:34;17.80;60.40
38398;DHT22;24179;52.094;4.408;2023-04-03T14:33:37;17.20;59.80
38398;DHT22;24179;52.094;4.408;2023-04-03T14:36:38;17.20;58.80
38398;DHT22;24179;52.094;4.408;2023-04-03T14:39:39;17.20;58.90
38398;DHT22;24179;52.094;4.408;2023-04-03T14:42:40;17.00;60.90
38398;DHT22;24179;52.094;4.408;2023-04-03T14:45:40;17.20;58.50
38398;DHT22;24179;52.094;4.408;2023-04-03T14:48:41;17.10;58.80
38398;DHT22;24179;52.094;4.408;2023-04-03T14:51:42;16.60;59.00
38398;DHT22;24179;52.094;4.408;2023-04-03T14:54:42;17.20;60.60
38398;DHT22;24179;52.094;4.408;2023-04-03T14:57:43;17.60;60.10
38398;DHT22;24179;52.094;4.408;2023-04-03T15:00:44;17.80;60.10
38398;DHT22;24179;52.094;4.408;2023-04-03T15:03:44;17.90;58.10
38398;DHT22;24179;52.094;4.408;2023-04-03T15:06:45;17.60;59.10
38398;DHT22;24179;52.094;4.408;2023-04-03T15:09:46;17.30;57.90
38398;DHT22;24179;52.094;4.408;2023-04-03T15:12:47;17.20;60.50
38398;DHT22;24179;52.094;4.408;2023-04-03T15:15:48;17.30;57.60
38398;DHT22;24179;52.094;4.408;2023-04-03T15:18:49;17.60;59.80
38398;DHT22;24179;52.094;4.408;2023-04-03T15:21:50;17.70;58.60
38398;DHT22;24179;52.094;4.408;2023-04-03T15:24:51;17.90;58.00
38398;DHT22;24179;52.094;4.408;2023-04-03T15:27:53;17.80;57.50
38398;DHT22;24179;52.094;4.408;2023-04-03T15:30:55;17.70;57.80
38398;DHT22;24179;52.094;4.408;2023-04-03T15:33:55;17.60;59.00
38398;DHT22;24179;52.094;4.408;2023-04-03T15:36:56;17.80;57.70
38398;DHT22;24179;52.094;4.408;2023-04-03T15:39:56;18.10;59.70
38398;DHT22;24179;52.094;4.408;2023-04-03T15:42:57;17.50;57.00
38398;DHT22;24179;52.094;4.408;2023-04-03T15:45:58;17.50;58.30
38398;DHT22;24179;52.094;4.408;2023-04-03T15:48:59;17.60;57.80
38398;DHT22;24179;52.094;4.408;2023-04-03T15:52:01;17.60;59.00
38398;DHT22;24179;52.094;4.408;2023-04-03T15:55:01;18.20;59.20
38398;DHT22;24179;52.094;4.408;2023-04-03T15:58:02;18.00;57.70
38398;DHT22;24179;52.094;4.408;2023-04-03T16:01:03;17.60;58.40
38398;DHT22;24179;52.094;4.408;2023-04-03T16:04:04;17.60;56.90
38398;DHT22;24179;52.094;4.408;2023-04-03T16:07:05;17.10;58.20
38398;DHT22;24179;52.094;4.408;2023-04-03T16:10:06;17.90;60.60
38398;DHT22;24179;52.094;4.408;2023-04-03T16:13:07;18.00;57.50
38398;DHT22;24179;52.094;4.408;2023-04-03T16:16:08;17.40;58.40
38398;DHT22;24179;52.094;4.408;2023-04-03T16:19:09;17.30;58.10
38398;DHT22;24179;52.094;4.408;2023-04-03T16:22:13;16.90;57.10
38398;DHT22;24179;52.094;4.408;2023-04-03T16:25:13;16.20;59.00
38398;DHT22;24179;52.094;4.408;2023-04-03T16:28:14;14.70;60.50
38398;DHT22;24179;52.094;4.408;2023-04-03T16:31:15;13.30;62.30
38398;DHT22;24179;52.094;4.408;2023-04-03T16:34:15;12.30;63.40
38398;DHT22;24179;52.094;4.408;2023-04-03T16:37:16;11.60;64.60
38398;DHT22;24179;52.094;4.408;2023-04-03T16:40:16;11.20;64.60
38398;DHT22;24179;52.094;4.408;2023-04-03T16:43:17;10.90;64.60
38398;DHT22;24179;52.094;4.408;2023-04-03T16:46:17;10.70;67.20
38398;DHT22;24179;52.094;4.408;2023-04-03T16:49:18;10.60;66.90
38398;DHT22;24179;52.094;4.408;2023-04-03T16:52:18;10.50;67.30
38398;DHT22;24179;52.094;4.408;2023-04-03T16:55:19;10.40;68.50
38398;DHT22;24179;52.094;4.408;2023-04-03T16:58:20;10.20;68.70
38398;DHT22;24179;52.094;4.408;2023-04-03T17:01:21;10.20;68.90
38398;DHT22;24179;52.094;4.408;2023-04-03T17:04:22;10.10;69.40
38398;DHT22;24179;52.094;4.408;2023-04-03T17:07:23;10.10;70.40
38398;DHT22;24179;52.094;4.408;2023-04-03T17:10:24;10.00;70.40
38398;DHT22;24179;52.094;4.408;2023-04-03T17:13:25;9.90;69.70
38398;DHT22;24179;52.094;4.408;2023-04-03T17:16:33;9.80;71.50
38398;DHT22;24179;52.094;4.408;2023-04-03T17:19:34;9.70;71.60
38398;DHT22;24179;52.094;4.408;2023-04-03T17:22:35;9.60;72.00
38398;DHT22;24179;52.094;4.408;2023-04-03T17:25:36;9.50;72.70
38398;DHT22;24179;52.094;4.408;2023-04-03T17:28:37;9.50;72.10
38398;DHT22;24179;52.094;4.408;2023-04-03T17:31:39;9.60;72.90
38398;DHT22;24179;52.094;4.408;2023-04-03T17:34:40;10.80;71.40
38398;DHT22;24179;52.094;4.408;2023-04-03T17:37:40;11.60;69.50
38398;DHT22;24179;52.094;4.408;2023-04-03T17:40:41;12.30;68.60
38398;DHT22;24179;52.094;4.408;2023-04-03T17:43:44;11.90;68.90
38398;DHT22;24179;52.094;4.408;2023-04-03T17:46:45;10.80;70.90
38398;DHT22;24179;52.094;4.408;2023-04-03T17:49:45;9.90;73.10
38398;DHT22;24179;52.094;4.408;2023-04-03T17:52:46;9.30;73.80
38398;DHT22;24179;52.094;4.408;2023-04-03T17:55:47;8.90;74.60
38398;DHT22;24179;52.094;4.408;2023-04-03T17:58:47;8.70;75.10
38398;DHT22;24179;52.094;4.408;2023-04-03T18:01:48;8.50;75.70
38398;DHT22;24179;52.094;4.408;2023-04-03T18:04:50;8.40;74.70
38398;DHT22;24179;52.094;4.408;2023-04-03T18:07:52;8.20;76.30
38398;DHT22;24179;52.094;4.408;2023-04-03T18:10:53;8.00;77.00
38398;DHT22;24179;52.094;4.408;2023-04-03T18:13:54;7.90;77.30
38398;DHT22;24179;52.094;4.408;2023-04-03T18:16:56;7.80;78.40
38398;DHT22;24179;52.094;4.408;2023-04-03T18:20:00;7.70;78.60
38398;DHT22;24179;52.094;4.408;2023-04-03T18:23:00;7.60;79.30
38398;DHT22;24179;52.094;4.408;2023-04-03T18:26:01;7.50;79.80
38398;DHT22;24179;52.094;4.408;2023-04-03T18:29:03;7.40;80.80
38398;DHT22;24179;52.094;4.408;2023-04-03T18:32:04;7.30;81.40
38398;DHT22;24179;52.094;4.408;2023-04-03T18:35:07;7.20;82.40
38398;DHT22;24179;52.094;4.408;2023-04-03T18:38:08;7.10;83.20
38398;DHT22;24179;52.094;4.408;2023-04-03T18:41:08;7.00;84.70
38398;DHT22;24179;52.094;4.408;2023-04-03T18:44:10;6.80;86.00
38398;DHT22;24179;52.094;4.408;2023-04-03T18:47:12;6.80;87.60
38398;DHT22;24179;52.094;4.408;2023-04-03T18:50:12;6.70;89.50
38398;DHT22;24179;52.094;4.408;2023-04-03T18:53:13;6.60;90.20
38398;DHT22;24179;52.094;4.408;2023-04-03T18:56:13;6.50;91.70
38398;DHT22;24179;52.094;4.408;2023-04-03T18:59:14;6.40;92.90
38398;DHT22;24179;52.094;4.408;2023-04-03T19:02:14;6.40;94.30
38398;DHT22;24179;52.094;4.408;2023-04-03T19:05:16;6.40;95.10
38398;DHT22;24179;52.094;4.408;2023-04-03T19:08:18;6.30;96.70
38398;DHT22;24179;52.094;4.408;2023-04-03T19:11:18;6.20;96.50
38398;DHT22;24179;52.094;4.408;2023-04-03T19:14:19;6.20;97.90
38398;DHT22;24179;52.094;4.408;2023-04-03T19:17:19;6.10;98.90
38398;DHT22;24179;52.094;4.408;2023-04-03T19:20:20;6.20;99.30
38398;DHT22;24179;52.094;4.408;2023-04-03T19:23:20;6.10;99.70
38398;DHT22;24179;52.094;4.408;2023-04-03T19:26:21;6.00;99.70
38398;DHT22;24179;52.094;4.408;2023-04-03T19:29:21;6.00;99.90
38398;DHT22;24179;52.094;4.408;2023-04-03T19:32:22;5.90;99.90
38398;DHT22;24179;52.094;4.408;2023-04-03T19:35:22;5.90;99.90
38398;DHT22;24179;52.094;4.408;2023-04-03T19:38:23;5.80;99.90
38398;DHT22;24179;52.094;4.408;2023-04-03T19:41:24;5.80;99.90
38398;DHT22;24179;52.094;4.408;2023-04-03T19:44:27;5.80;99.90
38398;DHT22;24179;52.094;4.408;2023-04-03T19:47:28;5.70;99.90
38398;DHT22;24179;52.094;4.408;2023-04-03T19:50:28;5.60;99.90
38398;DHT22;24179;52.094;4.408;2023-04-03T19:53:29;5.60;99.90
38398;DHT22;24179;52.094;4.408;2023-04-03T19:56:30;5.50;99.90
38398;DHT22;24179;52.094;4.408;2023-04-03T19:59:31;5.40;99.90
38398;DHT22;24179;52.094;4.408;2023-04-03T20:02:31;5.30;99.90
38398;DHT22;24179;52.094;4.408;2023-04-03T20:05:34;5.20;99.90
38398;DHT22;24179;52.094;4.408;2023-04-03T20:08:35;5.20;99.90
38398;DHT22;24179;52.094;4.408;2023-04-03T20:11:36;5.10;99.90
38398;DHT22;24179;52.094;4.408;2023-04-03T20:14:37;5.10;99.90
38398;DHT22;24179;52.094;4.408;2023-04-03T20:17:38;5.00;99.90
38398;DHT22;24179;52.094;4.408;2023-04-03T20:20:39;5.00;99.90
38398;DHT22;24179;52.094;4.408;2023-04-03T20:23:40;5.00;99.90
38398;DHT22;24179;52.094;4.408;2023-04-03T20:26:41;5.00;99.90
38398;DHT22;24179;52.094;4.408;2023-04-03T20:29:45;5.00;99.90
38398;DHT22;24179;52.094;4.408;2023-04-03T20:32:45;5.00;99.90
38398;DHT22;24179;52.094;4.408;2023-04-03T20:35:47;4.90;99.90
38398;DHT22;24179;52.094;4.408;2023-04-03T20:38:48;4.80;99.90
38398;DHT22;24179;52.094;4.408;2023-04-03T20:41:49;4.80;99.90
38398;DHT22;24179;52.094;4.408;2023-04-03T20:44:50;4.70;99.90